Time;durP1;ratioP1;P1;durP2;ratioP2;P2;SDS_P1;SDS_P2;PMS_P1;PMS_P2;Temp;Humidity;BMP_temperature;BMP_pressure;BME280_temperature;BME280_humidity;BME280_pressure;Samples;Min_cycle;Max_cycle;Signal;HPM_P1;HPM_P2
2022/02/01 00:00:04;;;;;;;12.40;4.90;;;;;1.50;96455.60;;;;111250;1247;42001;-61
2022/02/01 00:02:56;;;;;;;12.30;4.30;;;;;1.50;96449.20;;;;111083;1246;41167;-64
2022/02/01 00:05:34;;;;;;;14.20;4.80;;;;;1.50;96440.20;;;;111114;1247;41150;-65
2022/02/01 00:19:40;;;;;;;22.60;6.90;;;;;1.48;96436.60;;;;111109;1247;41613;-63
2022/02/01 00:35:34;;;;;;;24.30;8.30;;;;;1.42;96434.60;;;;111162;1247;41154;-64
2022/02/01 00:40:38;;;;;;;23.80;7.10;;;;;1.40;96437.80;;;;111174;1246;41793;-62
2022/02/01 00:43:09;;;;;;;20.50;7.20;;;;;1.40;96439.80;;;;111071;1247;41165;-60
2022/02/01 00:45:38;;;;;;;18.50;7.30;;;;;1.40;96441.20;;;;111103;1246;41259;-64
2022/02/01 00:48:07;;;;;;;21.10;7.90;;;;;1.40;96435.00;;;;111126;1247;41251;-63
2022/02/01 00:50:37;;;;;;;24.10;8.50;;;;;1.40;96427.80;;;;111251;1247;41618;-65
2022/02/01 00:53:08;;;;;;;28.50;9.70;;;;;1.40;96418.80;;;;111196;1247;41117;-63
2022/02/01 00:55:37;;;;;;;30.20;11.20;;;;;1.40;96414.20;;;;111170;1247;41627;-62
2022/02/01 00:58:06;;;;;;;25.30;9.90;;;;;1.32;96413.80;;;;111179;1246;41394;-63
2022/02/01 01:00:36;;;;;;;27.20;11.10;;;;;1.30;96415.40;;;;111094;1246;41129;-63
2022/02/01 01:03:06;;;;;;;27.50;11.10;;;;;1.30;96417.20;;;;111134;1246;41177;-64
2022/02/01 01:05:36;;;;;;;28.80;9.40;;;;;1.30;96419.40;;;;111152;1247;41185;-63
2022/02/01 01:08:06;;;;;;;23.60;9.00;;;;;1.30;96407.20;;;;111109;1245;41258;-61
2022/02/01 01:10:36;;;;;;;22.80;7.90;;;;;1.20;96403.40;;;;111199;1246;41747;-63
2022/02/01 01:13:29;;;;;;;19.10;8.10;;;;;1.20;96410.60;;;;111125;1247;41251;-62
2022/02/01 01:16:15;;;;;;;23.90;7.80;;;;;1.14;96409.60;;;;111183;1246;41284;-61
2022/02/01 01:44:09;;;;;;;17.20;6.40;;;;;1.00;96409.00;;;;111147;1247;41144;-59
2022/02/01 01:55:11;;;;;;;15.90;6.00;;;;;1.00;96419.00;;;;111125;1246;41137;-64
2022/02/01 01:57:41;;;;;;;15.80;5.10;;;;;0.96;96418.00;;;;111107;1247;41620;-62
2022/02/01 02:00:29;;;;;;;17.30;4.80;;;;;0.94;96414.80;;;;111201;1247;41148;-61
2022/02/01 02:02:59;;;;;;;15.30;5.10;;;;;0.90;96413.40;;;;111100;1249;41258;-66
2022/02/01 02:05:30;;;;;;;18.60;5.60;;;;;0.90;96408.60;;;;111049;1247;41386;-65
2022/02/01 02:08:00;;;;;;;16.80;5.40;;;;;0.92;96409.00;;;;111056;1247;41249;-62
2022/02/01 02:10:36;;;;;;;12.70;5.00;;;;;0.96;96403.20;;;;111108;1246;41156;-59
2022/02/01 02:16:08;;;;;;;18.30;5.90;;;;;1.00;96401.20;;;;111188;1247;43076;-67
2022/02/01 02:18:39;;;;;;;17.20;5.60;;;;;1.00;96395.00;;;;110809;1249;41169;-65
2022/02/01 02:21:09;;;;;;;18.00;6.30;;;;;1.00;96405.20;;;;111186;1247;41155;-65
2022/02/01 02:23:39;;;;;;;22.20;5.80;;;;;1.00;96408.20;;;;111127;1245;41260;-64
2022/02/01 02:26:16;;;;;;;14.40;5.40;;;;;1.00;96405.60;;;;111144;1247;41248;-64
2022/02/01 02:28:49;;;;;;;13.60;5.30;;;;;1.00;96403.80;;;;111094;1246;42401;-66
2022/02/01 02:31:23;;;;;;;14.70;5.50;;;;;1.00;96400.80;;;;111180;1246;41601;-61
2022/02/01 02:34:06;;;;;;;20.90;5.50;;;;;1.00;96394.80;;;;111097;1247;42212;-61
2022/02/01 02:36:42;;;;;;;18.10;5.10;;;;;1.00;96399.00;;;;111151;1246;41133;-59
2022/02/01 02:47:29;;;;;;;;;;;;;0.90;96407.40;;;;111158;1248;41136;-62
2022/02/01 02:50:00;;;;;;;15.30;5.00;;;;;0.90;96403.20;;;;111037;1248;41362;-62
2022/02/01 02:52:31;;;;;;;;;;;;;0.90;96401.80;;;;111033;1248;41651;-61
2022/02/01 02:55:02;;;;;;;16.10;4.90;;;;;0.84;96405.20;;;;111166;1247;42514;-65
2022/02/01 02:57:33;;;;;;;16.60;4.90;;;;;0.82;96406.20;;;;111134;1247;41168;-60
2022/02/01 03:00:03;;;;;;;16.20;5.40;;;;;0.82;96407.40;;;;111137;1247;41708;-60
2022/02/01 03:02:33;;;;;;;18.60;6.30;;;;;0.80;96402.00;;;;111169;1247;41271;-60
2022/02/01 03:05:04;;;;;;;18.40;5.90;;;;;0.80;96399.40;;;;111232;1247;42863;-63
2022/02/01 03:07:34;;;;;;;20.90;6.50;;;;;0.80;96402.00;;;;111260;1247;41167;-65
2022/02/01 03:10:05;;;;;;;17.30;5.90;;;;;0.80;96403.60;;;;111220;1247;41300;-61
2022/02/01 03:20:50;;;;;;;16.10;4.90;;;;;0.70;96408.40;;;;111057;1248;41934;-60
2022/02/01 03:23:19;;;;;;;14.20;5.00;;;;;0.70;96410.80;;;;111128;1247;41369;-64
2022/02/01 03:25:50;;;;;;;17.10;4.90;;;;;0.70;96410.60;;;;111115;1247;41460;-65
2022/02/01 03:28:20;;;;;;;12.20;4.80;;;;;0.70;96412.80;;;;111134;1247;41268;-63
2022/02/01 03:30:50;;;;;;;16.30;5.10;;;;;0.70;96418.40;;;;111213;1247;41271;-63
2022/02/01 03:33:20;;;;;;;15.90;5.10;;;;;0.64;96419.00;;;;111091;1246;41869;-63
2022/02/01 03:35:50;;;;;;;13.90;5.60;;;;;0.62;96421.60;;;;111097;1247;41499;-63
2022/02/01 03:38:21;;;;;;;19.30;6.00;;;;;0.66;96423.00;;;;111158;1247;43316;-63
2022/02/01 03:40:52;;;;;;;15.60;5.40;;;;;0.62;96424.60;;;;111153;1246;41260;-64
2022/02/01 03:43:22;;;;;;;16.80;5.30;;;;;0.68;96425.80;;;;111439;1246;41178;-60
2022/02/01 03:45:54;;;;;;;20.30;7.40;;;;;0.60;96437.40;;;;111423;1245;41548;-66
2022/02/01 03:48:25;;;;;;;25.10;6.70;;;;;0.60;96441.20;;;;111197;1247;41594;-65
2022/02/01 03:50:55;;;;;;;20.10;6.50;;;;;0.50;96458.60;;;;111175;1247;42283;-63
2022/02/01 03:53:25;;;;;;;21.30;7.50;;;;;0.40;96468.00;;;;111139;1247;41144;-63
2022/02/01 03:55:56;;;;;;;22.10;9.30;;;;;0.40;96477.20;;;;111097;1246;41250;-65
2022/02/01 03:58:25;;;;;;;19.90;7.50;;;;;0.40;96479.80;;;;111080;1246;41150;-64
2022/02/01 04:00:56;;;;;;;23.30;8.10;;;;;0.40;96480.80;;;;111059;1247;41127;-65
2022/02/01 04:03:26;;;;;;;18.60;7.00;;;;;0.34;96472.60;;;;111233;1247;41153;-63
2022/02/01 04:05:55;;;;;;;16.90;6.80;;;;;0.30;96465.00;;;;111188;1247;41251;-63
2022/02/01 04:08:25;;;;;;;19.60;6.60;;;;;0.20;96463.00;;;;111035;1247;41156;-66
2022/02/01 04:10:55;;;;;;;18.40;6.90;;;;;0.20;96464.40;;;;110786;1249;41200;-65
2022/02/01 04:13:25;;;;;;;20.90;7.90;;;;;0.10;96459.60;;;;111050;1247;41246;-64
2022/02/01 04:15:55;;;;;;;22.70;8.30;;;;;0.10;96455.00;;;;111114;1246;41712;-64
2022/02/01 04:18:24;;;;;;;21.70;7.20;;;;;0.00;96458.00;;;;111053;1247;41146;-64
2022/02/01 04:20:54;;;;;;;26.00;8.10;;;;;0.00;96459.20;;;;111223;1247;41712;-63
2022/02/01 04:23:23;;;;;;;18.60;7.90;;;;;0.00;96462.60;;;;111247;1247;41150;-64
2022/02/01 04:25:53;;;;;;;21.10;8.20;;;;;-0.08;96457.00;;;;111187;1247;41275;-65
2022/02/01 04:28:22;;;;;;;20.40;7.90;;;;;-0.10;96449.40;;;;111087;1247;42404;-65
2022/02/01 04:30:52;;;;;;;23.70;9.40;;;;;-0.10;96451.60;;;;111188;1247;41252;-66
2022/02/01 04:33:22;;;;;;;26.10;8.90;;;;;-0.10;96456.40;;;;111079;1246;41160;-67
2022/02/01 04:35:51;;;;;;;22.10;8.60;;;;;-0.10;96462.00;;;;111110;1246;42390;-63
2022/02/01 04:38:21;;;;;;;20.20;8.20;;;;;-0.10;96466.00;;;;111254;1247;41278;-64
2022/02/01 04:40:53;;;;;;;25.20;7.70;;;;;-0.10;96472.20;;;;111135;1247;41735;-59
2022/02/01 04:43:22;;;;;;;26.50;9.40;;;;;-0.10;96481.80;;;;111206;1246;42825;-66
2022/02/01 04:45:52;;;;;;;31.50;12.70;;;;;-0.10;96483.00;;;;111207;1247;41746;-59
2022/02/01 04:48:22;;;;;;;40.20;16.00;;;;;-0.10;96482.40;;;;111232;1247;41127;-59
2022/02/01 04:50:51;;;;;;;38.10;15.20;;;;;-0.10;96479.00;;;;111031;1248;41958;-58
2022/02/01 04:53:21;;;;;;;30.40;11.60;;;;;-0.10;96488.20;;;;111016;1247;41235;-59
2022/02/01 04:55:54;;;;;;;23.50;9.20;;;;;-0.10;96499.40;;;;111124;1247;41606;-61
2022/02/01 04:58:25;;;;;;;21.00;7.40;;;;;-0.10;96508.00;;;;111194;1246;41150;-62
2022/02/01 05:00:54;;;;;;;22.20;7.20;;;;;-0.10;96510.20;;;;111080;1247;42394;-60
2022/02/01 05:03:24;;;;;;;21.00;6.50;;;;;-0.10;96512.40;;;;110948;1247;41482;-59
2022/02/01 05:05:55;;;;;;;14.90;6.60;;;;;-0.10;96517.20;;;;111094;1247;41892;-59
2022/02/01 05:08:25;;;;;;;;;;;;;-0.10;96524.00;;;;111093;1247;41949;-61
2022/02/01 05:10:54;;;;;;;26.90;11.50;;;;;-0.18;96522.00;;;;111253;1247;41197;-59
2022/02/01 05:16:12;;;;;;;25.50;10.70;;;;;-0.20;96532.60;;;;111266;1246;41143;-65
2022/02/01 05:18:47;;;;;;;27.90;10.20;;;;;-0.20;96544.20;;;;111287;1246;41500;-59
2022/02/01 05:21:23;;;;;;;29.00;11.80;;;;;-0.20;96544.60;;;;111286;1247;41647;-66
2022/02/01 05:23:56;;;;;;;29.40;11.80;;;;;-0.28;96542.80;;;;111117;1247;41266;-62
2022/02/01 05:26:27;;;;;;;33.50;12.50;;;;;-0.30;96544.20;;;;111099;1247;41141;-62
2022/02/01 05:28:56;;;;;;;;;;;;;-0.30;96556.00;;;;111024;1249;41644;-61
2022/02/01 05:31:27;;;;;;;27.70;11.40;;;;;-0.40;96554.20;;;;111154;1248;41508;-62
2022/02/01 05:33:56;;;;;;;28.40;10.80;;;;;-0.40;96552.60;;;;111166;1248;41805;-63
2022/02/01 05:36:25;;;;;;;30.60;11.40;;;;;-0.40;96559.00;;;;111067;1247;41365;-59
2022/02/01 05:38:56;;;;;;;32.10;11.40;;;;;-0.40;96558.80;;;;111194;1247;41330;-60
2022/02/01 05:41:27;;;;;;;29.00;11.90;;;;;-0.42;96562.60;;;;111281;1247;41363;-65
2022/02/01 05:43:57;;;;;;;30.80;11.70;;;;;-0.42;96558.60;;;;111047;1247;41901;-61
2022/02/01 05:46:26;;;;;;;31.80;11.20;;;;;-0.50;96564.20;;;;111251;1247;41161;-63
2022/02/01 05:48:55;;;;;;;22.80;10.10;;;;;-0.50;96563.60;;;;111187;1247;42036;-64
2022/02/01 05:51:25;;;;;;;25.50;9.90;;;;;-0.50;96566.20;;;;111207;1246;41454;-62
2022/02/01 05:53:55;;;;;;;22.80;8.50;;;;;-0.60;96571.40;;;;111088;1247;41418;-61
2022/02/01 05:56:25;;;;;;;23.70;7.60;;;;;-0.60;96573.20;;;;111094;1248;41145;-62
2022/02/01 05:58:54;;;;;;;21.60;6.80;;;;;-0.60;96572.00;;;;111096;1247;41268;-61
2022/02/01 06:01:24;;;;;;;16.00;6.20;;;;;-0.60;96575.40;;;;111050;1247;42277;-65
2022/02/01 06:03:53;;;;;;;18.80;6.30;;;;;-0.60;96582.20;;;;110852;1247;41159;-63
2022/02/01 06:06:22;;;;;;;25.00;10.00;;;;;-0.50;96584.40;;;;111034;1247;41149;-62
2022/02/01 06:08:51;;;;;;;26.30;10.50;;;;;-0.50;96596.40;;;;111047;1246;41265;-61
2022/02/01 06:11:21;;;;;;;30.50;11.80;;;;;-0.40;96603.20;;;;111040;1249;41187;-66
2022/02/01 06:13:50;;;;;;;33.60;12.80;;;;;-0.40;96607.00;;;;111054;1247;41682;-64
2022/02/01 06:16:20;;;;;;;28.60;13.10;;;;;-0.40;96607.80;;;;111080;1246;42165;-62
2022/02/01 06:18:49;;;;;;;30.50;12.00;;;;;-0.36;96612.80;;;;111114;1247;41257;-62
2022/02/01 06:21:18;;;;;;;25.00;11.80;;;;;-0.32;96616.80;;;;111188;1247;41786;-63
2022/02/01 06:23:48;;;;;;;27.80;11.10;;;;;-0.30;96615.80;;;;111110;1247;42361;-62
2022/02/01 06:26:17;;;;;;;23.70;9.40;;;;;-0.30;96614.40;;;;111064;1247;42037;-62
2022/02/01 06:28:48;;;;;;;22.00;9.50;;;;;-0.20;96617.00;;;;110963;1249;41139;-64
2022/02/01 06:31:17;;;;;;;29.00;8.80;;;;;-0.18;96618.80;;;;111065;1248;41261;-63
2022/02/01 06:33:47;;;;;;;20.90;7.80;;;;;-0.10;96625.20;;;;111101;1247;41155;-65
2022/02/01 06:36:16;;;;;;;24.20;7.40;;;;;0.04;96622.60;;;;111135;1248;41603;-61
2022/02/01 06:38:46;;;;;;;18.50;6.20;;;;;0.10;96623.60;;;;111082;1248;42053;-63
2022/02/01 06:41:15;;;;;;;27.40;9.70;;;;;0.20;96621.20;;;;111019;1249;41347;-62
2022/02/01 06:43:49;;;;;;;48.50;15.00;;;;;0.30;96626.40;;;;111044;1246;41150;-64
2022/02/01 06:46:19;;;;;;;37.40;15.20;;;;;0.36;96625.80;;;;110992;1247;41636;-60
2022/02/01 06:48:48;;;;;;;25.60;11.20;;;;;0.40;96633.00;;;;111115;1246;40987;-61
2022/02/01 06:51:19;;;;;;;26.30;8.80;;;;;0.50;96638.80;;;;111287;1247;41609;-60
2022/02/01 06:53:49;;;;;;;21.40;8.20;;;;;0.50;96637.20;;;;111217;1247;41944;-60
2022/02/01 06:56:20;;;;;;;21.40;8.80;;;;;0.60;96639.80;;;;111065;1248;41301;-60
2022/02/01 06:58:48;;;;;;;26.10;9.40;;;;;0.70;96640.80;;;;111202;1247;41618;-62
2022/02/01 07:01:18;;;;;;;23.50;8.40;;;;;0.70;96636.20;;;;111461;1247;41939;-60
2022/02/01 07:03:47;;;;;;;20.80;8.30;;;;;0.80;96642.80;;;;111222;1248;41361;-60
2022/02/01 07:06:17;;;;;;;18.50;6.90;;;;;0.80;96640.00;;;;111056;1247;41497;-60
2022/02/01 07:08:48;;;;;;;15.30;6.20;;;;;0.90;96637.60;;;;111358;1247;41132;-59
2022/02/01 07:11:17;;;;;;;18.00;6.40;;;;;0.90;96640.40;;;;111092;1247;41135;-61
2022/02/01 07:13:48;;;;;;;22.00;6.60;;;;;1.00;96645.60;;;;111277;1247;41161;-61
2022/02/01 07:16:18;;;;;;;17.80;6.10;;;;;1.00;96643.20;;;;111260;1247;41163;-59
2022/02/01 07:18:51;;;;;;;15.70;6.10;;;;;1.10;96644.60;;;;111195;1247;41144;-65
2022/02/01 07:21:22;;;;;;;16.30;5.20;;;;;1.12;96648.00;;;;111247;1247;41464;-64
2022/02/01 07:23:51;;;;;;;16.10;5.60;;;;;1.20;96652.80;;;;111211;1247;41589;-63
2022/02/01 07:26:21;;;;;;;19.40;6.20;;;;;1.30;96657.00;;;;111233;1247;41361;-60
2022/02/01 07:28:51;;;;;;;21.40;6.90;;;;;1.30;96659.80;;;;111075;1249;42001;-59
2022/02/01 07:31:20;;;;;;;22.20;7.20;;;;;1.36;96657.40;;;;111065;1248;41144;-61
2022/02/01 07:33:49;;;;;;;23.30;8.10;;;;;1.40;96665.00;;;;111035;1247;42466;-64
2022/02/01 07:36:18;;;;;;;17.30;6.40;;;;;1.40;96672.40;;;;111089;1248;41149;-60
2022/02/01 07:38:48;;;;;;;16.10;6.60;;;;;1.50;96666.80;;;;111205;1246;41148;-59
2022/02/01 07:41:17;;;;;;;20.30;6.40;;;;;1.52;96665.60;;;;111209;1247;41156;-61
2022/02/01 07:43:46;;;;;;;15.60;6.10;;;;;1.60;96667.40;;;;111244;1247;42000;-61
2022/02/01 07:46:16;;;;;;;21.60;6.70;;;;;1.70;96671.60;;;;111167;1245;41174;-62
2022/02/01 07:48:45;;;;;;;19.10;6.10;;;;;1.78;96677.60;;;;111105;1247;41501;-63
2022/02/01 07:51:14;;;;;;;22.40;7.70;;;;;1.90;96681.40;;;;111208;1247;41865;-63
2022/02/01 07:53:43;;;;;;;21.60;8.10;;;;;2.00;96684.20;;;;111208;1247;41176;-64
2022/02/01 07:56:13;;;;;;;22.30;9.00;;;;;2.10;96690.40;;;;111250;1247;41599;-59
2022/02/01 07:58:42;;;;;;;23.70;9.30;;;;;2.16;96686.20;;;;111062;1248;41256;-62
2022/02/01 08:01:12;;;;;;;20.70;9.10;;;;;2.22;96687.00;;;;111235;1247;41151;-59
2022/02/01 08:03:41;;;;;;;23.90;10.00;;;;;2.36;96684.20;;;;111077;1247;42310;-60
2022/02/01 08:06:12;;;;;;;24.00;10.90;;;;;2.42;96688.80;;;;111257;1247;42366;-60
2022/02/01 08:08:41;;;;;;;36.10;14.00;;;;;2.50;96683.60;;;;111255;1247;41254;-62
2022/02/01 08:11:14;;;;;;;41.60;18.10;;;;;2.62;96682.00;;;;111236;1247;41166;-62
2022/02/01 08:16:42;;;;;;;30.80;13.20;;;;;2.90;96675.40;;;;111114;1247;41148;-61
2022/02/01 08:22:07;;;;;;;33.50;13.40;;;;;3.10;96676.60;;;;111282;1247;41153;-60
2022/02/01 08:24:37;;;;;;;34.20;14.80;;;;;3.20;96679.60;;;;111305;1247;42314;-64
2022/02/01 08:27:06;;;;;;;35.60;14.10;;;;;3.36;96672.80;;;;111121;1248;41146;-61
2022/02/01 08:29:35;;;;;;;28.90;13.80;;;;;3.50;96659.40;;;;111095;1247;41132;-61
2022/02/01 08:32:05;;;;;;;33.90;15.00;;;;;3.60;96660.80;;;;111179;1247;42406;-60
2022/02/01 08:34:34;;;;;;;34.80;15.50;;;;;3.70;96660.80;;;;111100;1247;41824;-58
2022/02/01 08:37:03;;;;;;;31.30;13.20;;;;;3.90;96664.60;;;;111227;1247;41128;-64
2022/02/01 08:39:32;;;;;;;25.20;10.50;;;;;4.06;96662.20;;;;111283;1247;41245;-61
2022/02/01 08:42:01;;;;;;;22.20;8.80;;;;;4.20;96652.20;;;;111204;1247;41117;-63
2022/02/01 08:44:31;;;;;;;28.10;9.80;;;;;4.20;96654.80;;;;111249;1247;41831;-60
2022/02/01 08:47:00;;;;;;;21.50;8.20;;;;;4.30;96660.80;;;;111258;1247;41724;-59
2022/02/01 08:49:31;;;;;;;22.60;9.10;;;;;4.40;96653.60;;;;111066;1249;42056;-59
2022/02/01 08:52:05;;;;;;;19.20;7.70;;;;;4.50;96642.60;;;;111021;1249;41197;-63
2022/02/01 08:54:36;;;;;;;25.30;9.70;;;;;4.60;96641.80;;;;111053;1249;41444;-60
2022/02/01 08:57:24;;;;;;;22.30;9.20;;;;;4.74;96638.20;;;;111070;1248;42055;-62
2022/02/01 09:00:03;;;;;;;23.20;9.60;;;;;4.92;96638.80;;;;111094;1247;41659;-64
2022/02/01 09:02:33;;;;;;;24.50;9.70;;;;;5.10;96638.80;;;;110870;1249;270723;-60
2022/02/01 09:05:05;;;;;;;23.40;10.00;;;;;5.30;96646.00;;;;111106;1247;41115;-60
2022/02/01 09:07:35;;;;;;;23.80;8.70;;;;;5.40;96655.40;;;;111135;1249;41181;-61
2022/02/01 09:10:05;;;;;;;20.60;9.30;;;;;5.50;96657.20;;;;110915;1249;41146;-60
2022/02/01 09:12:33;;;;;;;24.40;8.20;;;;;5.54;96655.60;;;;111080;1248;41668;-59
2022/02/01 09:15:03;;;;;;;21.30;9.00;;;;;5.54;96659.20;;;;111142;1247;42790;-61
2022/02/01 09:17:55;;;;;;;27.70;10.40;;;;;5.50;96660.00;;;;110811;1249;41600;-59
2022/02/01 09:20:30;;;;;;;21.40;9.20;;;;;5.50;96659.00;;;;111058;1248;41148;-60
2022/02/01 09:23:01;;;;;;;24.30;9.10;;;;;5.50;96651.80;;;;110893;1249;41471;-61
2022/02/01 09:25:30;;;;;;;24.80;9.40;;;;;5.52;96647.00;;;;110985;1250;41151;-59
2022/02/01 09:28:00;;;;;;;25.60;8.80;;;;;5.60;96642.00;;;;111039;1249;42831;-61
2022/02/01 09:30:31;;;;;;;23.10;8.00;;;;;5.70;96640.40;;;;110987;1248;41485;-60
2022/02/01 09:33:01;;;;;;;19.60;7.30;;;;;5.80;96641.60;;;;111090;1247;41272;-59
2022/02/01 09:35:30;;;;;;;20.30;7.00;;;;;5.80;96647.60;;;;110830;1249;41328;-62
2022/02/01 09:37:59;;;;;;;21.40;7.50;;;;;5.90;96642.20;;;;111057;1248;41521;-60
2022/02/01 09:40:45;;;;;;;16.90;7.30;;;;;5.90;96634.20;;;;110987;1249;41126;-63
2022/02/01 09:43:17;;;;;;;21.70;6.40;;;;;5.92;96634.00;;;;111078;1248;41599;-59
2022/02/01 09:45:46;;;;;;;18.70;7.10;;;;;5.90;96634.00;;;;111088;1249;41717;-62
2022/02/01 09:48:35;;;;;;;32.00;11.20;;;;;5.80;96642.40;;;;110978;1249;40892;-60
2022/02/01 09:51:08;;;;;;;35.60;13.00;;;;;5.60;96638.00;;;;111265;1247;41267;-61
2022/02/01 09:53:38;;;;;;;29.20;11.20;;;;;5.50;96638.40;;;;111212;1248;41531;-58
2022/02/01 09:56:08;;;;;;;20.20;7.40;;;;;5.50;96639.20;;;;111237;1247;41613;-63
2022/02/01 09:58:40;;;;;;;18.50;6.70;;;;;5.50;96635.20;;;;111158;1246;41726;-61
2022/02/01 10:01:17;;;;;;;21.80;6.10;;;;;5.60;96639.40;;;;111072;1248;41130;-61
2022/02/01 10:03:58;;;;;;;19.80;6.30;;;;;5.52;96634.20;;;;111245;1247;41182;-61
2022/02/01 10:06:41;;;;;;;17.50;5.90;;;;;5.50;96638.40;;;;111185;1247;41946;-65
2022/02/01 10:09:30;;;;;;;16.50;5.80;;;;;5.50;96630.00;;;;110929;1250;41280;-61
2022/02/01 10:11:59;;;;;;;18.40;6.10;;;;;5.50;96630.40;;;;111051;1247;41254;-63
2022/02/01 10:14:37;;;;;;;14.20;6.00;;;;;5.50;96635.40;;;;111214;1247;41597;-63
2022/02/01 10:17:09;;;;;;;22.50;7.20;;;;;5.56;96636.20;;;;111245;1247;41267;-58
2022/02/01 10:19:47;;;;;;;21.90;7.60;;;;;5.30;96630.40;;;;111169;1247;41876;-61
2022/02/01 10:22:16;;;;;;;18.30;7.10;;;;;5.08;96626.40;;;;111233;1247;41793;-62
2022/02/01 10:24:46;;;;;;;20.40;7.00;;;;;5.18;96627.80;;;;111090;1247;41787;-61
2022/02/01 10:27:20;;;;;;;16.80;6.80;;;;;5.22;96617.40;;;;111149;1247;41641;-59
2022/02/01 10:30:01;;;;;;;18.60;6.80;;;;;5.40;96612.60;;;;111221;1247;41204;-61
2022/02/01 10:38:00;;;;;;;18.10;7.50;;;;;5.90;96612.20;;;;111054;1248;42115;-63
2022/02/01 10:40:37;;;;;;;19.00;7.00;;;;;5.90;96604.60;;;;111022;1250;41715;-62
2022/02/01 10:43:30;;;;;;;24.70;7.00;;;;;5.80;96604.40;;;;111187;1247;41893;-64
2022/02/01 10:46:09;;;;;;;19.40;6.90;;;;;5.50;96598.40;;;;111257;1247;41136;-65
2022/02/01 10:48:45;;;;;;;20.40;6.90;;;;;5.32;96604.80;;;;111222;1247;41166;-59
2022/02/01 10:51:19;;;;;;;21.90;7.00;;;;;5.40;96603.60;;;;111119;1247;41152;-62
2022/02/01 10:53:49;;;;;;;15.10;5.60;;;;;5.50;96607.40;;;;111111;1248;41728;-63
2022/02/01 10:56:20;;;;;;;16.70;6.30;;;;;5.60;96606.20;;;;111101;1248;41248;-62
2022/02/01 10:58:49;;;;;;;;;;;;;5.56;96599.60;;;;111096;1249;41214;-61
2022/02/01 11:01:20;;;;;;;16.10;5.60;;;;;5.70;96603.60;;;;111058;1248;42104;-62
2022/02/01 11:03:50;;;;;;;18.80;5.20;;;;;5.86;96602.40;;;;110911;1249;41433;-62
2022/02/01 11:06:20;;;;;;;19.50;5.60;;;;;6.06;96596.60;;;;110964;1250;41264;-64
2022/02/01 11:08:50;;;;;;;18.70;5.90;;;;;6.26;96594.00;;;;111080;1248;41700;-66
2022/02/01 11:11:22;;;;;;;18.00;5.30;;;;;6.40;96597.00;;;;111354;1247;41362;-59
2022/02/01 11:13:51;;;;;;;15.00;5.80;;;;;6.60;96596.00;;;;111421;1247;41723;-61
2022/02/01 11:16:22;;;;;;;26.30;8.90;;;;;6.70;96593.80;;;;111477;1247;41630;-66
2022/02/01 11:19:10;;;;;;;25.00;8.60;;;;;6.90;96592.80;;;;111381;1247;41162;-61
2022/02/01 11:21:50;;;;;;;30.50;12.20;;;;;7.00;96584.40;;;;111306;1247;41162;-62
2022/02/01 11:24:33;;;;;;;30.70;14.30;;;;;6.90;96583.20;;;;111129;1247;42352;-61
2022/02/01 11:27:26;;;;;;;35.40;14.80;;;;;6.94;96587.80;;;;111258;1247;41157;-60
2022/02/01 11:30:11;;;;;;;31.50;13.90;;;;;6.90;96585.60;;;;111137;1247;41139;-66
2022/02/01 11:33:00;;;;;;;32.10;14.20;;;;;7.00;96581.20;;;;111171;1248;41378;-61
2022/02/01 11:35:30;;;;;;;32.70;14.00;;;;;7.00;96583.20;;;;111237;1247;41694;-63
2022/02/01 11:38:20;;;;;;;35.90;14.80;;;;;7.10;96582.80;;;;111259;1248;41189;-62
2022/02/01 11:41:00;;;;;;;29.70;13.50;;;;;7.10;96583.40;;;;111255;1247;42523;-64
2022/02/01 11:43:40;;;;;;;31.90;12.50;;;;;7.30;96573.40;;;;111218;1247;41223;-63
2022/02/01 11:46:10;;;;;;;28.70;12.30;;;;;7.40;96574.80;;;;111257;1247;41114;-64
2022/02/01 11:48:40;;;;;;;35.30;12.90;;;;;7.60;96578.60;;;;111252;1247;42864;-62
2022/02/01 11:51:12;;;;;;;29.90;13.30;;;;;7.76;96579.20;;;;111273;1247;41135;-64
2022/02/01 11:53:43;;;;;;;25.60;12.20;;;;;7.90;96586.60;;;;111277;1247;41871;-64
2022/02/01 11:56:16;;;;;;;27.00;12.00;;;;;7.90;96589.60;;;;111140;1247;41709;-64
2022/02/01 11:58:47;;;;;;;25.30;11.70;;;;;7.82;96583.40;;;;111251;1247;41235;-65
2022/02/01 12:01:23;;;;;;;26.30;11.40;;;;;7.80;96587.20;;;;111260;1246;41147;-59
2022/02/01 12:04:06;;;;;;;28.60;12.20;;;;;7.74;96588.00;;;;111065;1248;41719;-64
2022/02/01 12:07:06;;;;;;;101.40;35.50;;;;;7.74;96590.40;;;;111214;1247;41266;-59
2022/02/01 12:09:40;;;;;;;49.70;21.40;;;;;7.80;96588.80;;;;111165;1247;41370;-62
2022/02/01 12:12:09;;;;;;;41.90;17.80;;;;;7.88;96592.40;;;;111221;1247;41124;-61
2022/02/01 12:14:38;;;;;;;47.70;20.40;;;;;8.00;96587.20;;;;111248;1247;41121;-64
2022/02/01 12:17:09;;;;;;;29.60;14.60;;;;;8.20;96582.60;;;;111238;1247;41136;-62
2022/02/01 12:19:50;;;;;;;25.70;12.10;;;;;8.40;96578.60;;;;111236;1247;41351;-61
2022/02/01 12:22:39;;;;;;;24.90;9.40;;;;;8.58;96586.40;;;;111156;1247;41160;-60
2022/02/01 12:25:10;;;;;;;26.90;9.20;;;;;8.70;96579.00;;;;111221;1246;41159;-61
2022/02/01 12:27:44;;;;;;;21.60;7.50;;;;;8.88;96582.80;;;;110868;1249;41193;-64
2022/02/01 12:30:14;;;;;;;20.80;7.00;;;;;8.90;96579.60;;;;111120;1248;41205;-60
2022/02/01 12:32:55;;;;;;;19.80;8.20;;;;;8.94;96580.60;;;;110993;1247;41131;-63
2022/02/01 12:35:35;;;;;;;18.90;7.30;;;;;9.06;96584.60;;;;111215;1247;41147;-61
2022/02/01 12:38:14;;;;;;;21.40;7.80;;;;;9.10;96584.20;;;;110946;1247;41934;-64
2022/02/01 12:40:42;;;;;;;20.20;6.70;;;;;9.20;96582.60;;;;111152;1247;41125;-64
2022/02/01 12:43:17;;;;;;;17.80;5.40;;;;;9.20;96580.40;;;;111172;1247;41249;-63
2022/02/01 12:48:18;;;;;;;24.30;8.30;;;;;9.10;96576.80;;;;111192;1247;41941;-63
2022/02/01 12:50:56;;;;;;;19.80;6.80;;;;;9.00;96577.40;;;;111021;1249;41557;-63
2022/02/01 12:53:25;;;;;;;18.80;6.00;;;;;8.90;96586.80;;;;110885;1247;41458;-64
2022/02/01 12:55:55;;;;;;;16.70;5.80;;;;;8.80;96579.20;;;;111182;1247;41326;-61
2022/02/01 12:58:24;;;;;;;19.90;7.60;;;;;8.70;96580.40;;;;111252;1246;41949;-63
2022/02/01 13:00:54;;;;;;;19.00;5.30;;;;;8.60;96584.80;;;;111072;1247;42376;-62
2022/02/01 13:03:24;;;;;;;16.80;5.70;;;;;8.50;96591.60;;;;111052;1249;42180;-59
2022/02/01 13:06:00;;;;;;;21.90;6.40;;;;;8.40;96592.20;;;;111245;1246;42208;-61
2022/02/01 13:16:43;;;;;;;16.80;5.30;;;;;8.20;96596.40;;;;111028;1247;42362;-65
2022/02/01 13:22:11;;;;;;;14.60;4.90;;;;;8.18;96594.60;;;;111166;1247;41257;-62
2022/02/01 13:24:41;;;;;;;16.10;5.80;;;;;8.10;96600.60;;;;110849;1250;41319;-64
2022/02/01 13:27:20;;;;;;;21.50;6.60;;;;;8.10;96603.00;;;;111199;1246;41237;-65
2022/02/01 13:30:05;;;;;;;16.60;5.60;;;;;8.10;96607.00;;;;111126;1246;41196;-62
2022/02/01 13:32:39;;;;;;;15.90;5.10;;;;;7.90;96607.80;;;;110934;1247;41288;-65
2022/02/01 13:35:14;;;;;;;24.30;6.50;;;;;7.80;96611.20;;;;111192;1247;41585;-62
2022/02/01 13:37:48;;;;;;;13.80;5.00;;;;;7.70;96613.60;;;;111216;1247;41148;-65
2022/02/01 13:40:28;;;;;;;23.20;5.50;;;;;7.70;96617.00;;;;111236;1246;41615;-60
2022/02/01 13:42:58;;;;;;;16.20;5.30;;;;;7.60;96616.00;;;;111279;1247;42257;-65
2022/02/01 13:45:35;;;;;;;15.50;5.50;;;;;7.70;96617.60;;;;110991;1248;41267;-64
2022/02/01 13:48:11;;;;;;;24.90;7.20;;;;;7.80;96615.20;;;;111213;1247;42277;-62
2022/02/01 13:50:43;;;;;;;19.20;8.00;;;;;7.90;96620.80;;;;110983;1249;41736;-61
2022/02/01 13:53:12;;;;;;;27.10;8.60;;;;;7.68;96617.60;;;;111197;1247;41897;-65
2022/02/01 13:55:42;;;;;;;21.50;8.60;;;;;7.74;96619.80;;;;111281;1247;41763;-60
2022/02/01 13:58:14;;;;;;;23.20;9.30;;;;;7.86;96613.60;;;;111218;1247;41127;-65
2022/02/01 14:00:49;;;;;;;24.50;9.40;;;;;7.96;96612.60;;;;110871;1248;41413;-64
2022/02/01 14:03:41;;;;;;;24.30;9.90;;;;;8.00;96614.80;;;;111120;1247;41157;-61
2022/02/01 14:35:57;;;;;;;19.10;7.30;;;;;5.90;96643.80;;;;111248;1247;41398;-65
2022/02/01 14:46:33;;;;;;;50.50;22.40;;;;;5.40;96661.60;;;;111097;1247;41154;-64
2022/02/01 14:49:02;;;;;;;45.90;21.50;;;;;5.30;96666.00;;;;111228;1247;41380;-60
2022/02/01 14:51:31;;;;;;;44.20;17.00;;;;;5.16;96666.60;;;;111231;1247;42390;-60
2022/02/01 14:54:00;;;;;;;29.60;12.40;;;;;5.02;96667.20;;;;111249;1246;41952;-63
2022/02/01 14:56:34;;;;;;;35.90;14.90;;;;;4.80;96677.00;;;;111285;1247;41236;-61